Norwegian Star — C6FR3 — position and weather

sailwx.info

Track history (hours):
 
Tides and Currents Weather Stations Pressure Air Temp Water Temp Dewpoint Dewpoint Depression Visibility Wind Speed Wind Dir Waves Ship Positions

Norwegian Star

Operator: Norwegian Cruise Line

Last reported at 2017-Sep-25 01:03 UTC. Time now 2017-Sep-26 14:54 UTC.
Position N 44°13' E 013°56'.

Type: Ship. MMSI: 311082000.

Date/timePositionNaut miles runAvg speedWind from/ knotsBaromVisibWave heightAir tempDewpointWater temp
2017-Sep-25 01:03N 44°13' E 013°56'120.8
2017-Sep-25 01:01N 44°13' E 013°55'1120.7
2017-Sep-25 00:28N 44°23' E 013°46'920.4
2017-Sep-25 00:00N 44°31' E 013°39'1020.3
2017-Sep-24 23:30N 44°39' E 013°31'1020.3
2017-Sep-24 23:01N 44°47' E 013°23'1020.5
2017-Sep-24 22:30N 44°55' E 013°14'1020.4
2017-Sep-24 22:01N 45°03' E 013°04'1020.3
2017-Sep-24 21:30N 45°10' E 012°54'1019.8
2017-Sep-24 21:00N 45°17' E 012°44'917.4
2017-Sep-24 20:30N 45°22' E 012°34'713.5
2017-Sep-24 20:00N 45°25' E 012°25'3 6.2
2017-Sep-24 19:30N 45°26' E 012°21'2 3.7
2017-Sep-24 19:00N 45°26' E 012°19'0 0.1
2017-Sep-24 18:29N 45°26' E 012°19'0 0.0
2017-Sep-24 17:59N 45°26' E 012°19'0 0.0
2017-Sep-24 17:29N 45°26' E 012°19'0 0.0
2017-Sep-24 16:59N 45°26' E 012°19'0 0.0
2017-Sep-24 16:29N 45°26' E 012°19'0 0.0
2017-Sep-24 15:59N 45°26' E 012°19'0 0.0
2017-Sep-24 15:29N 45°26' E 012°19'0 0.0
2017-Sep-24 14:56N 45°26' E 012°19'0 0.0
2017-Sep-24 14:29N 45°26' E 012°19'0 0.0
2017-Sep-24 13:59N 45°26' E 012°19'0 0.0
2017-Sep-24 13:29N 45°26' E 012°19'0 0.0
2017-Sep-24 12:59N 45°26' E 012°19'0 0.0
2017-Sep-24 12:29N 45°26' E 012°19'0 0.0
2017-Sep-24 11:59N 45°26' E 012°19'0 0.0
2017-Sep-24 11:29N 45°26' E 012°19'0 0.0
2017-Sep-24 10:59N 45°26' E 012°19'0 0.0
2017-Sep-24 10:29N 45°26' E 012°19'0 0.0
2017-Sep-24 09:59N 45°26' E 012°19'0 0.0
2017-Sep-24 09:29N 45°26' E 012°19'0 0.0
2017-Sep-24 08:59N 45°26' E 012°19'0 0.0
2017-Sep-24 08:29N 45°26' E 012°19'0 0.0
2017-Sep-24 07:59N 45°26' E 012°19'0 0.0
2017-Sep-24 07:29N 45°26' E 012°19'0 0.0
2017-Sep-24 06:59N 45°26' E 012°19'0 0.0
2017-Sep-24 06:29N 45°26' E 012°19'0 0.0
2017-Sep-24 05:59N 45°26' E 012°19'0 0.0
2017-Sep-24 05:29N 45°26' E 012°19'0 0.0
2017-Sep-24 04:56N 45°26' E 012°19'0 0.9
2017-Sep-24 04:30N 45°26' E 012°18'2 4.7
2017-Sep-24 04:01N 45°25' E 012°22'4 7.0
2017-Sep-24 03:31N 45°25' E 012°27'713.8
2017-Sep-24 03:01N 45°21' E 012°35'917.1
2017-Sep-24 02:30N 45°17' E 012°45'919.0
2017-Sep-24 02:00N 45°11' E 012°55'1019.8
2017-Sep-24 01:30N 45°04' E 013°06'1019.8
2017-Sep-24 01:01N 44°58' E 013°17'1019.9
2017-Sep-24 00:30N 44°50' E 013°26'1020.3
2017-Sep-24 00:01N 44°42' E 013°34'1020.5
2017-Sep-23 23:30N 44°33' E 013°42'1020.3
2017-Sep-23 23:00N 44°25' E 013°50'1020.5
2017-Sep-23 22:30N 44°16' E 013°58'1020.3
2017-Sep-23 22:00N 44°08' E 014°06'1020.1
2017-Sep-23 21:30N 43°60' E 014°14'1020.1
2017-Sep-23 21:00N 43°52' E 014°23'1020.3
2017-Sep-23 20:30N 43°45' E 014°33'  
2017-Sep-21 15:07N 37°14' E 024°48'215.5
2017-Sep-21 15:00N 37°15' E 024°49'815.8
2017-Sep-21 14:30N 37°20' E 024°57'815.8
2017-Sep-21 14:00N 37°25' E 025°05'815.2
2017-Sep-21 13:30N 37°28' E 025°14'4 7.9
2017-Sep-21 13:00N 37°28' E 025°19'0 0.0
2017-Sep-21 12:30N 37°28' E 025°19'0 0.0
2017-Sep-21 12:00N 37°28' E 025°19'0 0.0
2017-Sep-21 11:30N 37°28' E 025°19'0 0.0
2017-Sep-21 10:51N 37°28' E 025°19'0 0.0
2017-Sep-21 10:30N 37°28' E 025°19'0 0.0
2017-Sep-21 09:57N 37°28' E 025°19'0 0.0
2017-Sep-21 09:30N 37°28' E 025°19'0 0.0
2017-Sep-21 08:57N 37°28' E 025°19'0 0.0
2017-Sep-21 08:30N 37°28' E 025°19'0 0.0
2017-Sep-21 08:00N 37°28' E 025°19'0 0.0
2017-Sep-21 07:30N 37°28' E 025°19'0 0.0
2017-Sep-21 07:00N 37°28' E 025°19'0 0.0
2017-Sep-21 06:21N 37°28' E 025°19'0 0.0
2017-Sep-21 06:00N 37°28' E 025°19'0 0.0
2017-Sep-21 05:30N 37°28' E 025°19'0 0.0
2017-Sep-21 05:00N 37°28' E 025°19'0 0.0
2017-Sep-21 04:30N 37°28' E 025°19'0 0.0
2017-Sep-21 04:00N 37°28' E 025°19'1 1.9
2017-Sep-21 03:31N 37°27' E 025°18'5 9.5
2017-Sep-21 03:00N 37°28' E 025°12'5 9.7
2017-Sep-21 02:30N 37°24' E 025°08'5 9.9
2017-Sep-21 02:00N 37°20' E 025°05'4 9.1
2017-Sep-21 01:31N 37°17' E 025°01'510.2
2017-Sep-21 01:01N 37°12' E 024°58'5 9.8
2017-Sep-21 00:31N 37°08' E 024°56'47 3.1
2017-Sep-20 09:29N 36°23' E 025°14'918.8
2017-Sep-20 09:00N 36°22' E 025°03'1019.4
2017-Sep-20 08:30N 36°22' E 024°51'1019.5
2017-Sep-20 08:01N 36°21' E 024°39'1019.4
2017-Sep-20 07:30N 36°21' E 024°27'1019.4
2017-Sep-20 07:00N 36°20' E 024°15'3719.4
2017-Sep-20 05:06N 36°20' E 023°29'219.4
2017-Sep-20 05:00N 36°20' E 023°27'29311.6
2017-Sep-19 03:49N 40°06' E 019°30'917.9
2017-Sep-19 03:21N 40°12' E 019°21'818.0
2017-Sep-19 02:53N 40°18' E 019°14'1917.9
2017-Sep-19 01:49N 40°36' E 019°07'718.1
2017-Sep-19 01:24N 40°44' E 019°05'1217.9
2017-Sep-19 00:44N 40°55' E 019°01'30211.3
2017-Sep-17 21:59N 44°15' E 013°53'1321.8
2017-Sep-17 21:24N 44°25' E 013°44'921.7
2017-Sep-17 21:00N 44°33' E 013°37'1121.8
2017-Sep-17 20:30N 44°42' E 013°29'1121.7
2017-Sep-17 20:00N 44°51' E 013°19'1121.6
2017-Sep-17 19:30N 44°59' E 013°10'1121.8
2017-Sep-17 19:00N 45°07' E 012°59'1121.7
2017-Sep-17 18:30N 45°15' E 012°48'1019.0
2017-Sep-17 18:00N 45°20' E 012°37'815.1
2017-Sep-17 17:30N 45°24' E 012°28'4 8.6
2017-Sep-17 17:00N 45°26' E 012°23'3 5.5
2017-Sep-17 16:30N 45°26' E 012°19'1 1.1
2017-Sep-17 16:00N 45°26' E 012°18'0 0.0
2017-Sep-17 15:30N 45°26' E 012°18'0 0.0
2017-Sep-17 15:00N 45°26' E 012°18'0 0.0
2017-Sep-17 14:30N 45°26' E 012°18'0 0.0
2017-Sep-17 14:00N 45°26' E 012°18'0 0.0
2017-Sep-17 13:30N 45°26' E 012°18'0 0.0
2017-Sep-17 13:00N 45°26' E 012°18'0 0.0
2017-Sep-17 12:30N 45°26' E 012°18'0 0.0
2017-Sep-17 12:00N 45°26' E 012°18'0 0.0
2017-Sep-17 11:30N 45°26' E 012°18'0 0.0
2017-Sep-17 11:00N 45°26' E 012°18'0 0.0
2017-Sep-17 10:30N 45°26' E 012°18'0 0.0
2017-Sep-17 10:00N 45°26' E 012°18'0 0.0
2017-Sep-17 09:30N 45°26' E 012°18'0 0.0
2017-Sep-17 09:00N 45°26' E 012°18'0 0.0
2017-Sep-17 08:30N 45°26' E 012°18'0 0.0
2017-Sep-17 08:00N 45°26' E 012°18'0 0.0
2017-Sep-17 07:30N 45°26' E 012°18'0 0.0
2017-Sep-17 07:00N 45°26' E 012°18'0 0.0
2017-Sep-17 06:30N 45°26' E 012°18'0 0.0
2017-Sep-17 05:57N 45°26' E 012°18'0 0.0
2017-Sep-17 05:30N 45°26' E 012°18'0 0.8
2017-Sep-17 05:00N 45°26' E 012°18'3 5.4
2017-Sep-17 04:31N 45°25' E 012°22'3 6.4
2017-Sep-17 04:00N 45°25' E 012°27'816.1
2017-Sep-17 03:30N 45°21' E 012°36'918.5
2017-Sep-17 03:00N 45°16' E 012°47'1019.5
2017-Sep-17 02:31N 45°09' E 012°57'1019.8
2017-Sep-17 02:01N 45°02' E 013°07'1019.4
2017-Sep-17 01:30N 44°57' E 013°19'1020.3
2017-Sep-17 01:00N 44°49' E 013°28'1020.2
2017-Sep-17 00:31N 44°40' E 013°35'1020.1
2017-Sep-17 00:00N 44°32' E 013°43'1019.8
2017-Sep-16 23:31N 44°24' E 013°51'1019.6
2017-Sep-16 23:00N 44°16' E 013°58'1019.0
2017-Sep-16 22:30N 44°08' E 014°06'36410.9
2017-Sep-15 13:09N 39°27' E 019°16'317.9
2017-Sep-15 13:00N 39°25' E 019°18'917.7
2017-Sep-15 12:30N 39°17' E 019°23'1316.5
2017-Sep-15 11:42N 39°05' E 019°29'416.1
2017-Sep-15 11:28N 39°01' E 019°31'  
Track history (hours):
 
Tides and Currents Weather Stations Pressure Air Temp Water Temp Dewpoint Dewpoint Depression Visibility Wind Speed Wind Dir Waves Ship Positions

Norwegian Star

Operator: Norwegian Cruise Line

Last reported at 2017-Sep-25 01:03 UTC. Time now 2017-Sep-26 14:54 UTC.
Position N 44°13' E 013°56'.

Type: Ship. MMSI: 311082000.

Date/timePositionNaut miles runAvg speedWind from/ knotsBaromVisibWave heightAir tempDewpointWater temp
2017-Sep-25 01:03N 44°13' E 013°56'120.8
2017-Sep-25 01:01N 44°13' E 013°55'1120.7
2017-Sep-25 00:28N 44°23' E 013°46'920.4
2017-Sep-25 00:00N 44°31' E 013°39'1020.3
2017-Sep-24 23:30N 44°39' E 013°31'1020.3
2017-Sep-24 23:01N 44°47' E 013°23'1020.5
2017-Sep-24 22:30N 44°55' E 013°14'1020.4
2017-Sep-24 22:01N 45°03' E 013°04'1020.3
2017-Sep-24 21:30N 45°10' E 012°54'1019.8
2017-Sep-24 21:00N 45°17' E 012°44'917.4
2017-Sep-24 20:30N 45°22' E 012°34'713.5
2017-Sep-24 20:00N 45°25' E 012°25'3 6.2
2017-Sep-24 19:30N 45°26' E 012°21'2 3.7
2017-Sep-24 19:00N 45°26' E 012°19'0 0.1
2017-Sep-24 18:29N 45°26' E 012°19'0 0.0
2017-Sep-24 17:59N 45°26' E 012°19'0 0.0
2017-Sep-24 17:29N 45°26' E 012°19'0 0.0
2017-Sep-24 16:59N 45°26' E 012°19'0 0.0
2017-Sep-24 16:29N 45°26' E 012°19'0 0.0
2017-Sep-24 15:59N 45°26' E 012°19'0 0.0
2017-Sep-24 15:29N 45°26' E 012°19'0 0.0
2017-Sep-24 14:56N 45°26' E 012°19'0 0.0
2017-Sep-24 14:29N 45°26' E 012°19'0 0.0
2017-Sep-24 13:59N 45°26' E 012°19'0 0.0
2017-Sep-24 13:29N 45°26' E 012°19'0 0.0
2017-Sep-24 12:59N 45°26' E 012°19'0 0.0
2017-Sep-24 12:29N 45°26' E 012°19'0 0.0
2017-Sep-24 11:59N 45°26' E 012°19'0 0.0
2017-Sep-24 11:29N 45°26' E 012°19'0 0.0
2017-Sep-24 10:59N 45°26' E 012°19'0 0.0
2017-Sep-24 10:29N 45°26' E 012°19'0 0.0
2017-Sep-24 09:59N 45°26' E 012°19'0 0.0
2017-Sep-24 09:29N 45°26' E 012°19'0 0.0
2017-Sep-24 08:59N 45°26' E 012°19'0 0.0
2017-Sep-24 08:29N 45°26' E 012°19'0 0.0
2017-Sep-24 07:59N 45°26' E 012°19'0 0.0
2017-Sep-24 07:29N 45°26' E 012°19'0 0.0
2017-Sep-24 06:59N 45°26' E 012°19'0 0.0
2017-Sep-24 06:29N 45°26' E 012°19'0 0.0
2017-Sep-24 05:59N 45°26' E 012°19'0 0.0
2017-Sep-24 05:29N 45°26' E 012°19'0 0.0
2017-Sep-24 04:56N 45°26' E 012°19'0 0.9
2017-Sep-24 04:30N 45°26' E 012°18'2 4.7
2017-Sep-24 04:01N 45°25' E 012°22'4 7.0
2017-Sep-24 03:31N 45°25' E 012°27'713.8
2017-Sep-24 03:01N 45°21' E 012°35'917.1
2017-Sep-24 02:30N 45°17' E 012°45'919.0
2017-Sep-24 02:00N 45°11' E 012°55'1019.8
2017-Sep-24 01:30N 45°04' E 013°06'1019.8
2017-Sep-24 01:01N 44°58' E 013°17'1019.9
2017-Sep-24 00:30N 44°50' E 013°26'1020.3
2017-Sep-24 00:01N 44°42' E 013°34'1020.5
2017-Sep-23 23:30N 44°33' E 013°42'1020.3
2017-Sep-23 23:00N 44°25' E 013°50'1020.5
2017-Sep-23 22:30N 44°16' E 013°58'1020.3
2017-Sep-23 22:00N 44°08' E 014°06'1020.1
2017-Sep-23 21:30N 43°60' E 014°14'1020.1
2017-Sep-23 21:00N 43°52' E 014°23'1020.3
2017-Sep-23 20:30N 43°45' E 014°33'  
2017-Sep-21 15:07N 37°14' E 024°48'215.5
2017-Sep-21 15:00N 37°15' E 024°49'815.8
2017-Sep-21 14:30N 37°20' E 024°57'815.8
2017-Sep-21 14:00N 37°25' E 025°05'815.2
2017-Sep-21 13:30N 37°28' E 025°14'4 7.9
2017-Sep-21 13:00N 37°28' E 025°19'0 0.0
2017-Sep-21 12:30N 37°28' E 025°19'0 0.0
2017-Sep-21 12:00N 37°28' E 025°19'0 0.0
2017-Sep-21 11:30N 37°28' E 025°19'0 0.0
2017-Sep-21 10:51N 37°28' E 025°19'0 0.0
2017-Sep-21 10:30N 37°28' E 025°19'0 0.0
2017-Sep-21 09:57N 37°28' E 025°19'0 0.0
2017-Sep-21 09:30N 37°28' E 025°19'0 0.0
2017-Sep-21 08:57N 37°28' E 025°19'0 0.0
2017-Sep-21 08:30N 37°28' E 025°19'0 0.0
2017-Sep-21 08:00N 37°28' E 025°19'0 0.0
2017-Sep-21 07:30N 37°28' E 025°19'0 0.0
2017-Sep-21 07:00N 37°28' E 025°19'0 0.0
2017-Sep-21 06:21N 37°28' E 025°19'0 0.0
2017-Sep-21 06:00N 37°28' E 025°19'0 0.0
2017-Sep-21 05:30N 37°28' E 025°19'0 0.0
2017-Sep-21 05:00N 37°28' E 025°19'0 0.0
2017-Sep-21 04:30N 37°28' E 025°19'0 0.0
2017-Sep-21 04:00N 37°28' E 025°19'1 1.9
2017-Sep-21 03:31N 37°27' E 025°18'5 9.5
2017-Sep-21 03:00N 37°28' E 025°12'5 9.7
2017-Sep-21 02:30N 37°24' E 025°08'5 9.9
2017-Sep-21 02:00N 37°20' E 025°05'4 9.1
2017-Sep-21 01:31N 37°17' E 025°01'510.2
2017-Sep-21 01:01N 37°12' E 024°58'5 9.8
2017-Sep-21 00:31N 37°08' E 024°56'47 3.1
2017-Sep-20 09:29N 36°23' E 025°14'918.8
2017-Sep-20 09:00N 36°22' E 025°03'1019.4
2017-Sep-20 08:30N 36°22' E 024°51'1019.5
2017-Sep-20 08:01N 36°21' E 024°39'1019.4
2017-Sep-20 07:30N 36°21' E 024°27'1019.4
2017-Sep-20 07:00N 36°20' E 024°15'3719.4
2017-Sep-20 05:06N 36°20' E 023°29'219.4
2017-Sep-20 05:00N 36°20' E 023°27'29311.6
2017-Sep-19 03:49N 40°06' E 019°30'917.9
2017-Sep-19 03:21N 40°12' E 019°21'818.0
2017-Sep-19 02:53N 40°18' E 019°14'1917.9
2017-Sep-19 01:49N 40°36' E 019°07'718.1
2017-Sep-19 01:24N 40°44' E 019°05'1217.9
2017-Sep-19 00:44N 40°55' E 019°01'30211.3
2017-Sep-17 21:59N 44°15' E 013°53'1321.8
2017-Sep-17 21:24N 44°25' E 013°44'921.7
2017-Sep-17 21:00N 44°33' E 013°37'1121.8
2017-Sep-17 20:30N 44°42' E 013°29'1121.7
2017-Sep-17 20:00N 44°51' E 013°19'1121.6
2017-Sep-17 19:30N 44°59' E 013°10'1121.8
2017-Sep-17 19:00N 45°07' E 012°59'1121.7
2017-Sep-17 18:30N 45°15' E 012°48'1019.0
2017-Sep-17 18:00N 45°20' E 012°37'815.1
2017-Sep-17 17:30N 45°24' E 012°28'4 8.6
2017-Sep-17 17:00N 45°26' E 012°23'3 5.5
2017-Sep-17 16:30N 45°26' E 012°19'1 1.1
2017-Sep-17 16:00N 45°26' E 012°18'0 0.0
2017-Sep-17 15:30N 45°26' E 012°18'0 0.0
2017-Sep-17 15:00N 45°26' E 012°18'0 0.0
2017-Sep-17 14:30N 45°26' E 012°18'0 0.0
2017-Sep-17 14:00N 45°26' E 012°18'0 0.0
2017-Sep-17 13:30N 45°26' E 012°18'0 0.0
2017-Sep-17 13:00N 45°26' E 012°18'0 0.0
2017-Sep-17 12:30N 45°26' E 012°18'0 0.0
2017-Sep-17 12:00N 45°26' E 012°18'0 0.0
2017-Sep-17 11:30N 45°26' E 012°18'0 0.0
2017-Sep-17 11:00N 45°26' E 012°18'0 0.0
2017-Sep-17 10:30N 45°26' E 012°18'0 0.0
2017-Sep-17 10:00N 45°26' E 012°18'0 0.0
2017-Sep-17 09:30N 45°26' E 012°18'0 0.0
2017-Sep-17 09:00N 45°26' E 012°18'0 0.0
2017-Sep-17 08:30N 45°26' E 012°18'0 0.0
2017-Sep-17 08:00N 45°26' E 012°18'0 0.0
2017-Sep-17 07:30N 45°26' E 012°18'0 0.0
2017-Sep-17 07:00N 45°26' E 012°18'0 0.0
2017-Sep-17 06:30N 45°26' E 012°18'0 0.0
2017-Sep-17 05:57N 45°26' E 012°18'0 0.0
2017-Sep-17 05:30N 45°26' E 012°18'0 0.8
2017-Sep-17 05:00N 45°26' E 012°18'3 5.4
2017-Sep-17 04:31N 45°25' E 012°22'3 6.4
2017-Sep-17 04:00N 45°25' E 012°27'816.1
2017-Sep-17 03:30N 45°21' E 012°36'918.5
2017-Sep-17 03:00N 45°16' E 012°47'1019.5
2017-Sep-17 02:31N 45°09' E 012°57'1019.8
2017-Sep-17 02:01N 45°02' E 013°07'1019.4
2017-Sep-17 01:30N 44°57' E 013°19'1020.3
2017-Sep-17 01:00N 44°49' E 013°28'1020.2
2017-Sep-17 00:31N 44°40' E 013°35'1020.1
2017-Sep-17 00:00N 44°32' E 013°43'1019.8
2017-Sep-16 23:31N 44°24' E 013°51'1019.6
2017-Sep-16 23:00N 44°16' E 013°58'1019.0
2017-Sep-16 22:30N 44°08' E 014°06'36410.9
2017-Sep-15 13:09N 39°27' E 019°16'317.9
2017-Sep-15 13:00N 39°25' E 019°18'917.7
2017-Sep-15 12:30N 39°17' E 019°23'1316.5
2017-Sep-15 11:42N 39°05' E 019°29'416.1
2017-Sep-15 11:28N 39°01' E 019°31'  

Dump ship's entire track history